sensor_id;sensor_type;location;lat;lon;timestamp;P1;durP1;ratioP1;P2;durP2;ratioP2
56045;SDS011;41913;51.030;3.706;2023-02-04T00:01:38;0.90;;;0.90;;
56045;SDS011;41913;51.030;3.706;2023-02-04T00:04:04;1.08;;;0.82;;
56045;SDS011;41913;51.030;3.706;2023-02-04T00:06:29;0.60;;;0.60;;
56045;SDS011;41913;51.030;3.706;2023-02-04T00:08:55;0.80;;;0.80;;
56045;SDS011;41913;51.030;3.706;2023-02-04T00:11:21;0.60;;;0.60;;
56045;SDS011;41913;51.030;3.706;2023-02-04T00:13:47;2.30;;;0.63;;
56045;SDS011;41913;51.030;3.706;2023-02-04T00:16:12;0.68;;;0.68;;
56045;SDS011;41913;51.030;3.706;2023-02-04T00:18:39;2.03;;;0.98;;
56045;SDS011;41913;51.030;3.706;2023-02-04T00:21:06;0.90;;;0.90;;
56045;SDS011;41913;51.030;3.706;2023-02-04T00:23:31;0.90;;;0.90;;
56045;SDS011;41913;51.030;3.706;2023-02-04T00:25:57;0.73;;;0.60;;
56045;SDS011;41913;51.030;3.706;2023-02-04T00:28:24;0.80;;;0.80;;
56045;SDS011;41913;51.030;3.706;2023-02-04T00:30:49;0.70;;;0.70;;
56045;SDS011;41913;51.030;3.706;2023-02-04T00:33:15;0.70;;;0.70;;
56045;SDS011;41913;51.030;3.706;2023-02-04T00:35:41;0.80;;;0.80;;
56045;SDS011;41913;51.030;3.706;2023-02-04T00:38:06;0.70;;;0.70;;
56045;SDS011;41913;51.030;3.706;2023-02-04T00:40:32;0.80;;;0.80;;
56045;SDS011;41913;51.030;3.706;2023-02-04T00:42:58;0.80;;;0.80;;
56045;SDS011;41913;51.030;3.706;2023-02-04T00:45:23;1.00;;;0.85;;
56045;SDS011;41913;51.030;3.706;2023-02-04T00:47:50;1.00;;;0.95;;
56045;SDS011;41913;51.030;3.706;2023-02-04T00:50:18;1.02;;;0.80;;
56045;SDS011;41913;51.030;3.706;2023-02-04T00:52:43;0.80;;;0.80;;
56045;SDS011;41913;51.030;3.706;2023-02-04T00:55:09;1.23;;;0.93;;
56045;SDS011;41913;51.030;3.706;2023-02-04T00:57:36;0.90;;;0.88;;
56045;SDS011;41913;51.030;3.706;2023-02-04T01:00:02;0.60;;;0.60;;
56045;SDS011;41913;51.030;3.706;2023-02-04T01:02:29;0.80;;;0.80;;
56045;SDS011;41913;51.030;3.706;2023-02-04T01:04:55;0.90;;;0.90;;
56045;SDS011;41913;51.030;3.706;2023-02-04T01:07:20;0.57;;;0.57;;
56045;SDS011;41913;51.030;3.706;2023-02-04T01:09:46;0.50;;;0.50;;
56045;SDS011;41913;51.030;3.706;2023-02-04T01:12:12;0.98;;;0.98;;
56045;SDS011;41913;51.030;3.706;2023-02-04T01:14:38;0.70;;;0.68;;
56045;SDS011;41913;51.030;3.706;2023-02-04T01:17:04;0.50;;;0.50;;
56045;SDS011;41913;51.030;3.706;2023-02-04T01:19:30;0.60;;;0.60;;
56045;SDS011;41913;51.030;3.706;2023-02-04T01:21:56;0.60;;;0.55;;
56045;SDS011;41913;51.030;3.706;2023-02-04T01:24:21;0.52;;;0.52;;
56045;SDS011;41913;51.030;3.706;2023-02-04T01:26:47;1.17;;;0.77;;
56045;SDS011;41913;51.030;3.706;2023-02-04T01:29:16;0.70;;;0.70;;
56045;SDS011;41913;51.030;3.706;2023-02-04T01:31:41;1.13;;;0.90;;
56045;SDS011;41913;51.030;3.706;2023-02-04T01:34:07;0.50;;;0.50;;
56045;SDS011;41913;51.030;3.706;2023-02-04T01:36:33;0.50;;;0.50;;
56045;SDS011;41913;51.030;3.706;2023-02-04T01:38:58;0.70;;;0.70;;
56045;SDS011;41913;51.030;3.706;2023-02-04T01:41:25;0.52;;;0.52;;
56045;SDS011;41913;51.030;3.706;2023-02-04T01:43:51;2.53;;;0.60;;
56045;SDS011;41913;51.030;3.706;2023-02-04T01:46:18;0.45;;;0.45;;
56045;SDS011;41913;51.030;3.706;2023-02-04T01:48:44;0.70;;;0.70;;
56045;SDS011;41913;51.030;3.706;2023-02-04T01:51:11;0.40;;;0.40;;
56045;SDS011;41913;51.030;3.706;2023-02-04T01:53:41;0.80;;;0.80;;
56045;SDS011;41913;51.030;3.706;2023-02-04T01:56:14;0.65;;;0.65;;
56045;SDS011;41913;51.030;3.706;2023-02-04T01:58:41;0.63;;;0.63;;
56045;SDS011;41913;51.030;3.706;2023-02-04T02:01:11;0.52;;;0.52;;
56045;SDS011;41913;51.030;3.706;2023-02-04T02:03:39;1.65;;;0.90;;
56045;SDS011;41913;51.030;3.706;2023-02-04T02:06:06;0.95;;;0.60;;
56045;SDS011;41913;51.030;3.706;2023-02-04T02:08:34;0.60;;;0.60;;
56045;SDS011;41913;51.030;3.706;2023-02-04T02:11:01;0.47;;;0.47;;
56045;SDS011;41913;51.030;3.706;2023-02-04T02:13:28;0.50;;;0.50;;
56045;SDS011;41913;51.030;3.706;2023-02-04T02:15:53;0.98;;;0.85;;
56045;SDS011;41913;51.030;3.706;2023-02-04T02:18:19;0.70;;;0.70;;
56045;SDS011;41913;51.030;3.706;2023-02-04T02:20:45;0.63;;;0.47;;
56045;SDS011;41913;51.030;3.706;2023-02-04T02:26:12;0.63;;;0.63;;
56045;SDS011;41913;51.030;3.706;2023-02-04T02:28:38;1.33;;;0.90;;
56045;SDS011;41913;51.030;3.706;2023-02-04T02:31:04;1.35;;;0.82;;
56045;SDS011;41913;51.030;3.706;2023-02-04T02:33:29;0.70;;;0.70;;
56045;SDS011;41913;51.030;3.706;2023-02-04T02:35:56;0.50;;;0.50;;
56045;SDS011;41913;51.030;3.706;2023-02-04T02:38:22;0.93;;;0.80;;
56045;SDS011;41913;51.030;3.706;2023-02-04T02:40:47;1.23;;;0.55;;
56045;SDS011;41913;51.030;3.706;2023-02-04T02:43:14;0.30;;;0.30;;
56045;SDS011;41913;51.030;3.706;2023-02-04T02:45:43;0.70;;;0.70;;
56045;SDS011;41913;51.030;3.706;2023-02-04T02:48:09;0.55;;;0.55;;
56045;SDS011;41913;51.030;3.706;2023-02-04T02:50:36;0.40;;;0.40;;
56045;SDS011;41913;51.030;3.706;2023-02-04T02:53:02;0.60;;;0.60;;
56045;SDS011;41913;51.030;3.706;2023-02-04T02:55:30;0.60;;;0.60;;
56045;SDS011;41913;51.030;3.706;2023-02-04T02:57:56;0.52;;;0.52;;
56045;SDS011;41913;51.030;3.706;2023-02-04T03:00:26;0.70;;;0.70;;
56045;SDS011;41913;51.030;3.706;2023-02-04T03:05:42;0.57;;;0.57;;
56045;SDS011;41913;51.030;3.706;2023-02-04T03:08:10;0.70;;;0.70;;
56045;SDS011;41913;51.030;3.706;2023-02-04T03:10:38;0.57;;;0.57;;
56045;SDS011;41913;51.030;3.706;2023-02-04T03:13:05;0.40;;;0.40;;
56045;SDS011;41913;51.030;3.706;2023-02-04T03:15:32;1.35;;;0.82;;
56045;SDS011;41913;51.030;3.706;2023-02-04T03:17:58;0.95;;;0.60;;
56045;SDS011;41913;51.030;3.706;2023-02-04T03:20:26;0.50;;;0.50;;
56045;SDS011;41913;51.030;3.706;2023-02-04T03:22:54;0.30;;;0.30;;
56045;SDS011;41913;51.030;3.706;2023-02-04T03:25:23;0.57;;;0.57;;
56045;SDS011;41913;51.030;3.706;2023-02-04T03:27:51;0.77;;;0.50;;
56045;SDS011;41913;51.030;3.706;2023-02-04T03:30:20;0.80;;;0.80;;
56045;SDS011;41913;51.030;3.706;2023-02-04T03:32:47;0.70;;;0.70;;
56045;SDS011;41913;51.030;3.706;2023-02-04T03:35:13;0.50;;;0.50;;
56045;SDS011;41913;51.030;3.706;2023-02-04T03:37:41;0.73;;;0.73;;
56045;SDS011;41913;51.030;3.706;2023-02-04T03:40:08;0.57;;;0.57;;
56045;SDS011;41913;51.030;3.706;2023-02-04T03:42:35;0.50;;;0.50;;
56045;SDS011;41913;51.030;3.706;2023-02-04T03:45:00;0.50;;;0.50;;
56045;SDS011;41913;51.030;3.706;2023-02-04T03:47:27;0.98;;;0.70;;
56045;SDS011;41913;51.030;3.706;2023-02-04T03:49:52;0.65;;;0.65;;
56045;SDS011;41913;51.030;3.706;2023-02-04T03:52:19;0.73;;;0.73;;
56045;SDS011;41913;51.030;3.706;2023-02-04T03:54:46;0.50;;;0.50;;
56045;SDS011;41913;51.030;3.706;2023-02-04T03:57:11;0.98;;;0.70;;
56045;SDS011;41913;51.030;3.706;2023-02-04T03:59:38;0.82;;;0.80;;
56045;SDS011;41913;51.030;3.706;2023-02-04T04:02:04;0.85;;;0.60;;
56045;SDS011;41913;51.030;3.706;2023-02-04T04:04:29;0.77;;;0.77;;
56045;SDS011;41913;51.030;3.706;2023-02-04T04:06:55;0.82;;;0.70;;
56045;SDS011;41913;51.030;3.706;2023-02-04T04:09:21;0.50;;;0.50;;
56045;SDS011;41913;51.030;3.706;2023-02-04T04:11:46;0.80;;;0.75;;
56045;SDS011;41913;51.030;3.706;2023-02-04T04:14:13;0.60;;;0.60;;
56045;SDS011;41913;51.030;3.706;2023-02-04T04:16:39;0.45;;;0.45;;
56045;SDS011;41913;51.030;3.706;2023-02-04T04:19:05;0.40;;;0.40;;
56045;SDS011;41913;51.030;3.706;2023-02-04T04:21:32;0.60;;;0.60;;
56045;SDS011;41913;51.030;3.706;2023-02-04T04:23:57;0.60;;;0.60;;
56045;SDS011;41913;51.030;3.706;2023-02-04T04:26:23;1.20;;;0.60;;
56045;SDS011;41913;51.030;3.706;2023-02-04T04:28:49;0.47;;;0.47;;
56045;SDS011;41913;51.030;3.706;2023-02-04T04:31:14;0.50;;;0.50;;
56045;SDS011;41913;51.030;3.706;2023-02-04T04:33:40;0.63;;;0.63;;
56045;SDS011;41913;51.030;3.706;2023-02-04T04:36:06;0.70;;;0.70;;
56045;SDS011;41913;51.030;3.706;2023-02-04T04:38:34;0.85;;;0.70;;
56045;SDS011;41913;51.030;3.706;2023-02-04T04:41:00;0.50;;;0.50;;
56045;SDS011;41913;51.030;3.706;2023-02-04T04:43:26;0.90;;;0.90;;
56045;SDS011;41913;51.030;3.706;2023-02-04T04:45:51;0.55;;;0.55;;
56045;SDS011;41913;51.030;3.706;2023-02-04T04:48:18;0.68;;;0.68;;
56045;SDS011;41913;51.030;3.706;2023-02-04T04:50:45;0.47;;;0.47;;
56045;SDS011;41913;51.030;3.706;2023-02-04T04:53:11;0.52;;;0.52;;
56045;SDS011;41913;51.030;3.706;2023-02-04T04:55:37;0.50;;;0.50;;
56045;SDS011;41913;51.030;3.706;2023-02-04T04:58:03;0.60;;;0.60;;
56045;SDS011;41913;51.030;3.706;2023-02-04T05:00:29;0.68;;;0.68;;
56045;SDS011;41913;51.030;3.706;2023-02-04T05:02:55;1.00;;;0.73;;
56045;SDS011;41913;51.030;3.706;2023-02-04T05:05:21;0.70;;;0.70;;
56045;SDS011;41913;51.030;3.706;2023-02-04T05:07:47;0.50;;;0.50;;
56045;SDS011;41913;51.030;3.706;2023-02-04T05:10:13;0.57;;;0.57;;
56045;SDS011;41913;51.030;3.706;2023-02-04T05:12:39;0.40;;;0.40;;
56045;SDS011;41913;51.030;3.706;2023-02-04T05:15:05;0.88;;;0.68;;
56045;SDS011;41913;51.030;3.706;2023-02-04T05:17:31;0.70;;;0.70;;
56045;SDS011;41913;51.030;3.706;2023-02-04T05:19:57;0.85;;;0.80;;
56045;SDS011;41913;51.030;3.706;2023-02-04T05:22:23;0.73;;;0.73;;
56045;SDS011;41913;51.030;3.706;2023-02-04T05:24:48;0.75;;;0.75;;
56045;SDS011;41913;51.030;3.706;2023-02-04T05:27:14;0.75;;;0.47;;
56045;SDS011;41913;51.030;3.706;2023-02-04T05:29:40;0.85;;;0.82;;
56045;SDS011;41913;51.030;3.706;2023-02-04T05:32:05;0.70;;;0.70;;
56045;SDS011;41913;51.030;3.706;2023-02-04T05:34:31;0.47;;;0.47;;
56045;SDS011;41913;51.030;3.706;2023-02-04T05:36:58;0.38;;;0.38;;
56045;SDS011;41913;51.030;3.706;2023-02-04T05:39:23;0.60;;;0.60;;
56045;SDS011;41913;51.030;3.706;2023-02-04T05:41:49;0.88;;;0.88;;
56045;SDS011;41913;51.030;3.706;2023-02-04T05:44:15;0.80;;;0.80;;
56045;SDS011;41913;51.030;3.706;2023-02-04T05:46:41;0.45;;;0.45;;
56045;SDS011;41913;51.030;3.706;2023-02-04T05:49:08;0.82;;;0.82;;
56045;SDS011;41913;51.030;3.706;2023-02-04T05:51:34;1.13;;;0.80;;
56045;SDS011;41913;51.030;3.706;2023-02-04T05:54:01;0.70;;;0.70;;
56045;SDS011;41913;51.030;3.706;2023-02-04T05:56:26;0.90;;;0.90;;
56045;SDS011;41913;51.030;3.706;2023-02-04T05:58:52;1.08;;;1.08;;
56045;SDS011;41913;51.030;3.706;2023-02-04T06:01:18;0.80;;;0.80;;
56045;SDS011;41913;51.030;3.706;2023-02-04T06:03:44;1.95;;;1.55;;
56045;SDS011;41913;51.030;3.706;2023-02-04T06:06:10;1.50;;;1.40;;
56045;SDS011;41913;51.030;3.706;2023-02-04T06:08:35;1.23;;;1.13;;
56045;SDS011;41913;51.030;3.706;2023-02-04T06:11:01;1.60;;;1.10;;
56045;SDS011;41913;51.030;3.706;2023-02-04T06:13:27;1.30;;;1.20;;
56045;SDS011;41913;51.030;3.706;2023-02-04T06:15:53;1.40;;;1.30;;
56045;SDS011;41913;51.030;3.706;2023-02-04T06:18:19;1.55;;;1.45;;
56045;SDS011;41913;51.030;3.706;2023-02-04T06:20:45;1.73;;;1.55;;
56045;SDS011;41913;51.030;3.706;2023-02-04T06:23:12;1.13;;;1.02;;
56045;SDS011;41913;51.030;3.706;2023-02-04T06:25:38;1.33;;;1.25;;
56045;SDS011;41913;51.030;3.706;2023-02-04T06:28:04;1.33;;;1.23;;
56045;SDS011;41913;51.030;3.706;2023-02-04T06:30:29;1.67;;;1.48;;
56045;SDS011;41913;51.030;3.706;2023-02-04T06:32:56;1.30;;;1.30;;
56045;SDS011;41913;51.030;3.706;2023-02-04T06:35:21;1.20;;;1.10;;
56045;SDS011;41913;51.030;3.706;2023-02-04T06:37:47;1.20;;;1.20;;
56045;SDS011;41913;51.030;3.706;2023-02-04T06:40:13;1.13;;;1.10;;
56045;SDS011;41913;51.030;3.706;2023-02-04T06:42:39;1.02;;;0.93;;
56045;SDS011;41913;51.030;3.706;2023-02-04T06:45:04;1.52;;;1.42;;
56045;SDS011;41913;51.030;3.706;2023-02-04T06:47:30;4.47;;;1.67;;
56045;SDS011;41913;51.030;3.706;2023-02-04T06:49:56;1.20;;;1.20;;
56045;SDS011;41913;51.030;3.706;2023-02-04T06:52:22;2.33;;;1.35;;
56045;SDS011;41913;51.030;3.706;2023-02-04T06:54:47;1.40;;;1.40;;
56045;SDS011;41913;51.030;3.706;2023-02-04T06:57:13;2.53;;;1.25;;
56045;SDS011;41913;51.030;3.706;2023-02-04T06:59:39;1.33;;;1.23;;
56045;SDS011;41913;51.030;3.706;2023-02-04T07:02:07;1.10;;;1.05;;
56045;SDS011;41913;51.030;3.706;2023-02-04T07:04:36;1.35;;;1.13;;
56045;SDS011;41913;51.030;3.706;2023-02-04T07:07:01;1.88;;;1.42;;
56045;SDS011;41913;51.030;3.706;2023-02-04T07:09:27;1.80;;;1.67;;
56045;SDS011;41913;51.030;3.706;2023-02-04T07:11:53;1.80;;;1.20;;
56045;SDS011;41913;51.030;3.706;2023-02-04T07:14:21;1.27;;;1.25;;
56045;SDS011;41913;51.030;3.706;2023-02-04T07:16:47;2.38;;;1.00;;
56045;SDS011;41913;51.030;3.706;2023-02-04T07:19:13;1.33;;;1.20;;
56045;SDS011;41913;51.030;3.706;2023-02-04T07:21:39;0.98;;;0.90;;
56045;SDS011;41913;51.030;3.706;2023-02-04T07:24:05;0.85;;;0.85;;
56045;SDS011;41913;51.030;3.706;2023-02-04T07:26:30;0.85;;;0.85;;
56045;SDS011;41913;51.030;3.706;2023-02-04T07:28:56;2.15;;;0.98;;
56045;SDS011;41913;51.030;3.706;2023-02-04T07:31:22;1.10;;;1.00;;
56045;SDS011;41913;51.030;3.706;2023-02-04T07:33:48;1.33;;;1.23;;
56045;SDS011;41913;51.030;3.706;2023-02-04T07:36:13;2.67;;;1.25;;
56045;SDS011;41913;51.030;3.706;2023-02-04T07:38:40;2.65;;;2.00;;
56045;SDS011;41913;51.030;3.706;2023-02-04T07:41:08;2.53;;;2.33;;
56045;SDS011;41913;51.030;3.706;2023-02-04T07:43:34;1.50;;;1.35;;
56045;SDS011;41913;51.030;3.706;2023-02-04T07:45:59;1.30;;;1.17;;
56045;SDS011;41913;51.030;3.706;2023-02-04T07:48:26;1.00;;;1.00;;
56045;SDS011;41913;51.030;3.706;2023-02-04T07:50:52;1.33;;;1.17;;
56045;SDS011;41913;51.030;3.706;2023-02-04T07:53:18;1.63;;;1.30;;
56045;SDS011;41913;51.030;3.706;2023-02-04T07:55:44;1.15;;;1.05;;
56045;SDS011;41913;51.030;3.706;2023-02-04T07:58:10;2.05;;;1.85;;
56045;SDS011;41913;51.030;3.706;2023-02-04T08:00:35;1.60;;;1.50;;
56045;SDS011;41913;51.030;3.706;2023-02-04T08:03:02;1.60;;;1.50;;
56045;SDS011;41913;51.030;3.706;2023-02-04T08:05:28;2.33;;;1.50;;
56045;SDS011;41913;51.030;3.706;2023-02-04T08:07:54;1.80;;;1.65;;
56045;SDS011;41913;51.030;3.706;2023-02-04T08:10:21;2.60;;;1.30;;
56045;SDS011;41913;51.030;3.706;2023-02-04T08:12:46;2.92;;;1.23;;
56045;SDS011;41913;51.030;3.706;2023-02-04T08:15:12;5.50;;;1.05;;
56045;SDS011;41913;51.030;3.706;2023-02-04T08:17:39;2.00;;;1.75;;
56045;SDS011;41913;51.030;3.706;2023-02-04T08:20:05;1.63;;;1.42;;
56045;SDS011;41913;51.030;3.706;2023-02-04T08:22:31;1.30;;;1.20;;
56045;SDS011;41913;51.030;3.706;2023-02-04T08:24:56;2.42;;;1.65;;
56045;SDS011;41913;51.030;3.706;2023-02-04T08:27:22;1.48;;;1.38;;
56045;SDS011;41913;51.030;3.706;2023-02-04T08:29:48;1.85;;;1.20;;
56045;SDS011;41913;51.030;3.706;2023-02-04T08:32:13;2.50;;;1.63;;
56045;SDS011;41913;51.030;3.706;2023-02-04T08:34:39;1.85;;;1.45;;
56045;SDS011;41913;51.030;3.706;2023-02-04T08:37:04;1.60;;;1.48;;
56045;SDS011;41913;51.030;3.706;2023-02-04T08:39:30;4.47;;;2.15;;
56045;SDS011;41913;51.030;3.706;2023-02-04T08:41:58;6.07;;;1.80;;
56045;SDS011;41913;51.030;3.706;2023-02-04T08:44:24;6.68;;;2.00;;
56045;SDS011;41913;51.030;3.706;2023-02-04T08:46:50;13.80;;;3.38;;
56045;SDS011;41913;51.030;3.706;2023-02-04T08:49:16;7.55;;;1.90;;
56045;SDS011;41913;51.030;3.706;2023-02-04T08:51:42;14.55;;;2.75;;
56045;SDS011;41913;51.030;3.706;2023-02-04T08:54:22;41.13;;;4.53;;
56045;SDS011;41913;51.030;3.706;2023-02-04T08:56:52;24.50;;;2.93;;
56045;SDS011;41913;51.030;3.706;2023-02-04T08:59:20;58.67;;;7.07;;
56045;SDS011;41913;51.030;3.706;2023-02-04T09:01:48;164.25;;;21.42;;
56045;SDS011;41913;51.030;3.706;2023-02-04T09:04:16;92.47;;;17.10;;
56045;SDS011;41913;51.030;3.706;2023-02-04T09:06:45;73.40;;;14.90;;
56045;SDS011;41913;51.030;3.706;2023-02-04T09:09:11;62.30;;;13.15;;
56045;SDS011;41913;51.030;3.706;2023-02-04T09:11:37;22.25;;;7.07;;
56045;SDS011;41913;51.030;3.706;2023-02-04T09:14:03;14.98;;;5.00;;
56045;SDS011;41913;51.030;3.706;2023-02-04T09:16:29;10.15;;;5.43;;
56045;SDS011;41913;51.030;3.706;2023-02-04T09:18:54;9.70;;;3.70;;
56045;SDS011;41913;51.030;3.706;2023-02-04T09:21:22;9.73;;;3.30;;
56045;SDS011;41913;51.030;3.706;2023-02-04T09:23:48;7.47;;;2.83;;
56045;SDS011;41913;51.030;3.706;2023-02-04T09:26:13;3.67;;;2.65;;
56045;SDS011;41913;51.030;3.706;2023-02-04T09:28:39;9.57;;;2.80;;
56045;SDS011;41913;51.030;3.706;2023-02-04T09:31:05;4.13;;;2.05;;
56045;SDS011;41913;51.030;3.706;2023-02-04T09:33:31;6.68;;;2.42;;
56045;SDS011;41913;51.030;3.706;2023-02-04T09:35:57;4.72;;;2.03;;
56045;SDS011;41913;51.030;3.706;2023-02-04T09:38:23;4.15;;;2.00;;
56045;SDS011;41913;51.030;3.706;2023-02-04T09:40:55;9.57;;;2.15;;
56045;SDS011;41913;51.030;3.706;2023-02-04T09:43:24;6.60;;;2.42;;
56045;SDS011;41913;51.030;3.706;2023-02-04T09:45:53;4.10;;;2.10;;
56045;SDS011;41913;51.030;3.706;2023-02-04T09:48:21;5.97;;;1.88;;
56045;SDS011;41913;51.030;3.706;2023-02-04T09:50:49;2.03;;;1.75;;
56045;SDS011;41913;51.030;3.706;2023-02-04T09:53:18;5.10;;;2.22;;
56045;SDS011;41913;51.030;3.706;2023-02-04T09:55:47;17.88;;;2.42;;
56045;SDS011;41913;51.030;3.706;2023-02-04T09:58:16;9.60;;;2.40;;
56045;SDS011;41913;51.030;3.706;2023-02-04T10:00:45;6.07;;;1.90;;
56045;SDS011;41913;51.030;3.706;2023-02-04T10:03:18;3.47;;;2.20;;
56045;SDS011;41913;51.030;3.706;2023-02-04T10:05:47;6.95;;;1.60;;
56045;SDS011;41913;51.030;3.706;2023-02-04T10:08:21;4.45;;;2.28;;
56045;SDS011;41913;51.030;3.706;2023-02-04T10:10:57;5.55;;;1.65;;
56045;SDS011;41913;51.030;3.706;2023-02-04T10:13:23;1.58;;;1.55;;
56045;SDS011;41913;51.030;3.706;2023-02-04T10:15:56;3.35;;;1.50;;
56045;SDS011;41913;51.030;3.706;2023-02-04T10:18:28;12.85;;;4.30;;
56045;SDS011;41913;51.030;3.706;2023-02-04T10:23:30;8.52;;;2.10;;
56045;SDS011;41913;51.030;3.706;2023-02-04T10:25:56;4.38;;;1.83;;
56045;SDS011;41913;51.030;3.706;2023-02-04T10:28:31;4.15;;;2.05;;
56045;SDS011;41913;51.030;3.706;2023-02-04T10:31:00;11.40;;;2.50;;
56045;SDS011;41913;51.030;3.706;2023-02-04T10:33:26;3.58;;;1.90;;
56045;SDS011;41913;51.030;3.706;2023-02-04T10:35:53;3.75;;;1.67;;
56045;SDS011;41913;51.030;3.706;2023-02-04T10:38:20;3.50;;;1.92;;
56045;SDS011;41913;51.030;3.706;2023-02-04T10:40:48;11.10;;;2.88;;
56045;SDS011;41913;51.030;3.706;2023-02-04T10:43:27;7.28;;;1.50;;
56045;SDS011;41913;51.030;3.706;2023-02-04T10:45:55;10.32;;;3.28;;
56045;SDS011;41913;51.030;3.706;2023-02-04T10:48:38;5.20;;;1.90;;
56045;SDS011;41913;51.030;3.706;2023-02-04T10:51:05;5.88;;;2.30;;
56045;SDS011;41913;51.030;3.706;2023-02-04T10:53:35;4.95;;;1.83;;
56045;SDS011;41913;51.030;3.706;2023-02-04T10:56:21;3.40;;;1.30;;
56045;SDS011;41913;51.030;3.706;2023-02-04T10:58:47;2.63;;;1.92;;
56045;SDS011;41913;51.030;3.706;2023-02-04T11:01:14;1.98;;;1.20;;
56045;SDS011;41913;51.030;3.706;2023-02-04T11:03:42;1.88;;;1.77;;
56045;SDS011;41913;51.030;3.706;2023-02-04T11:06:12;1.70;;;1.50;;
56045;SDS011;41913;51.030;3.706;2023-02-04T11:08:42;3.25;;;1.40;;
56045;SDS011;41913;51.030;3.706;2023-02-04T11:11:21;1.90;;;1.17;;
56045;SDS011;41913;51.030;3.706;2023-02-04T11:16:31;1.38;;;1.23;;
56045;SDS011;41913;51.030;3.706;2023-02-04T11:19:00;3.42;;;1.25;;
56045;SDS011;41913;51.030;3.706;2023-02-04T11:24:05;0.95;;;0.70;;
56045;SDS011;41913;51.030;3.706;2023-02-04T11:26:47;3.50;;;1.45;;
56045;SDS011;41913;51.030;3.706;2023-02-04T11:31:55;1.80;;;1.33;;
56045;SDS011;41913;51.030;3.706;2023-02-04T11:36:54;1.20;;;1.10;;
56045;SDS011;41913;51.030;3.706;2023-02-04T11:39:21;1.00;;;1.00;;
56045;SDS011;41913;51.030;3.706;2023-02-04T11:41:48;1.13;;;1.00;;
56045;SDS011;41913;51.030;3.706;2023-02-04T11:44:14;0.65;;;0.63;;
56045;SDS011;41913;51.030;3.706;2023-02-04T11:46:40;0.80;;;0.80;;
56045;SDS011;41913;51.030;3.706;2023-02-04T11:51:43;0.80;;;0.80;;
56045;SDS011;41913;51.030;3.706;2023-02-04T11:54:11;0.90;;;0.90;;
56045;SDS011;41913;51.030;3.706;2023-02-04T11:56:37;3.80;;;0.90;;
56045;SDS011;41913;51.030;3.706;2023-02-04T11:59:04;1.40;;;1.00;;
56045;SDS011;41913;51.030;3.706;2023-02-04T12:01:30;1.08;;;0.70;;
56045;SDS011;41913;51.030;3.706;2023-02-04T12:03:58;2.40;;;1.38;;
56045;SDS011;41913;51.030;3.706;2023-02-04T12:06:27;1.30;;;1.00;;
56045;SDS011;41913;51.030;3.706;2023-02-04T12:11:55;1.08;;;1.08;;
56045;SDS011;41913;51.030;3.706;2023-02-04T12:14:27;0.68;;;0.68;;
56045;SDS011;41913;51.030;3.706;2023-02-04T12:16:55;0.70;;;0.70;;
56045;SDS011;41913;51.030;3.706;2023-02-04T12:19:21;0.85;;;0.85;;
56045;SDS011;41913;51.030;3.706;2023-02-04T12:21:47;0.73;;;0.73;;
56045;SDS011;41913;51.030;3.706;2023-02-04T12:24:12;0.88;;;0.80;;
56045;SDS011;41913;51.030;3.706;2023-02-04T12:26:38;0.80;;;0.80;;
56045;SDS011;41913;51.030;3.706;2023-02-04T12:29:04;0.80;;;0.73;;
56045;SDS011;41913;51.030;3.706;2023-02-04T12:31:31;1.05;;;1.05;;
56045;SDS011;41913;51.030;3.706;2023-02-04T12:33:57;0.88;;;0.88;;
56045;SDS011;41913;51.030;3.706;2023-02-04T12:36:23;0.77;;;0.77;;
56045;SDS011;41913;51.030;3.706;2023-02-04T12:38:51;1.40;;;1.13;;
56045;SDS011;41913;51.030;3.706;2023-02-04T12:41:18;1.17;;;1.10;;
56045;SDS011;41913;51.030;3.706;2023-02-04T12:43:44;2.60;;;1.42;;
56045;SDS011;41913;51.030;3.706;2023-02-04T12:46:10;0.95;;;0.95;;
56045;SDS011;41913;51.030;3.706;2023-02-04T12:48:36;1.05;;;0.80;;
56045;SDS011;41913;51.030;3.706;2023-02-04T12:51:05;0.85;;;0.85;;
56045;SDS011;41913;51.030;3.706;2023-02-04T12:53:31;1.33;;;1.13;;
56045;SDS011;41913;51.030;3.706;2023-02-04T12:55:57;0.90;;;0.90;;
56045;SDS011;41913;51.030;3.706;2023-02-04T12:58:22;0.60;;;0.60;;
56045;SDS011;41913;51.030;3.706;2023-02-04T13:00:48;1.52;;;1.00;;
56045;SDS011;41913;51.030;3.706;2023-02-04T13:03:15;1.60;;;1.50;;
56045;SDS011;41913;51.030;3.706;2023-02-04T13:05:40;1.13;;;1.00;;
56045;SDS011;41913;51.030;3.706;2023-02-04T13:08:06;0.80;;;0.80;;
56045;SDS011;41913;51.030;3.706;2023-02-04T13:10:32;1.00;;;1.00;;
56045;SDS011;41913;51.030;3.706;2023-02-04T13:12:58;0.90;;;0.90;;
56045;SDS011;41913;51.030;3.706;2023-02-04T13:15:24;2.40;;;0.68;;
56045;SDS011;41913;51.030;3.706;2023-02-04T13:17:50;1.02;;;1.02;;
56045;SDS011;41913;51.030;3.706;2023-02-04T13:20:17;2.92;;;1.55;;
56045;SDS011;41913;51.030;3.706;2023-02-04T13:22:43;0.80;;;0.80;;
56045;SDS011;41913;51.030;3.706;2023-02-04T13:25:08;1.05;;;0.95;;
56045;SDS011;41913;51.030;3.706;2023-02-04T13:27:35;0.75;;;0.70;;
56045;SDS011;41913;51.030;3.706;2023-02-04T13:30:04;0.68;;;0.68;;
56045;SDS011;41913;51.030;3.706;2023-02-04T13:32:31;0.85;;;0.80;;
56045;SDS011;41913;51.030;3.706;2023-02-04T13:34:57;3.80;;;1.23;;
56045;SDS011;41913;51.030;3.706;2023-02-04T13:37:22;1.17;;;0.85;;
56045;SDS011;41913;51.030;3.706;2023-02-04T13:39:48;1.10;;;1.10;;
56045;SDS011;41913;51.030;3.706;2023-02-04T13:42:13;1.98;;;0.77;;
56045;SDS011;41913;51.030;3.706;2023-02-04T13:44:39;0.88;;;0.88;;
56045;SDS011;41913;51.030;3.706;2023-02-04T13:47:06;1.55;;;0.90;;
56045;SDS011;41913;51.030;3.706;2023-02-04T13:49:32;1.25;;;0.90;;
56045;SDS011;41913;51.030;3.706;2023-02-04T13:51:58;1.00;;;1.00;;
56045;SDS011;41913;51.030;3.706;2023-02-04T13:54:24;2.38;;;0.90;;
56045;SDS011;41913;51.030;3.706;2023-02-04T13:56:51;0.77;;;0.65;;
56045;SDS011;41913;51.030;3.706;2023-02-04T13:59:17;0.90;;;0.90;;
56045;SDS011;41913;51.030;3.706;2023-02-04T14:01:42;0.95;;;0.88;;
56045;SDS011;41913;51.030;3.706;2023-02-04T14:04:08;0.70;;;0.70;;
56045;SDS011;41913;51.030;3.706;2023-02-04T14:06:33;2.97;;;0.85;;
56045;SDS011;41913;51.030;3.706;2023-02-04T14:09:02;1.00;;;0.90;;
56045;SDS011;41913;51.030;3.706;2023-02-04T14:11:29;0.85;;;0.80;;
56045;SDS011;41913;51.030;3.706;2023-02-04T14:13:56;2.15;;;0.60;;
56045;SDS011;41913;51.030;3.706;2023-02-04T14:16:21;0.60;;;0.50;;
56045;SDS011;41913;51.030;3.706;2023-02-04T14:18:48;1.00;;;1.00;;
56045;SDS011;41913;51.030;3.706;2023-02-04T14:21:14;4.72;;;0.82;;
56045;SDS011;41913;51.030;3.706;2023-02-04T14:23:40;0.95;;;0.88;;
56045;SDS011;41913;51.030;3.706;2023-02-04T14:26:06;0.95;;;0.93;;
56045;SDS011;41913;51.030;3.706;2023-02-04T14:28:32;0.70;;;0.70;;
56045;SDS011;41913;51.030;3.706;2023-02-04T14:30:57;2.33;;;0.90;;
56045;SDS011;41913;51.030;3.706;2023-02-04T14:33:23;1.85;;;0.77;;
56045;SDS011;41913;51.030;3.706;2023-02-04T14:35:50;0.90;;;0.90;;
56045;SDS011;41913;51.030;3.706;2023-02-04T14:38:15;1.70;;;1.13;;
56045;SDS011;41913;51.030;3.706;2023-02-04T14:40:42;0.98;;;0.75;;
56045;SDS011;41913;51.030;3.706;2023-02-04T14:43:10;0.95;;;0.95;;
56045;SDS011;41913;51.030;3.706;2023-02-04T14:45:36;1.05;;;1.05;;
56045;SDS011;41913;51.030;3.706;2023-02-04T14:48:03;1.80;;;1.20;;
56045;SDS011;41913;51.030;3.706;2023-02-04T14:50:29;1.20;;;1.10;;
56045;SDS011;41913;51.030;3.706;2023-02-04T14:52:55;2.08;;;1.00;;
56045;SDS011;41913;51.030;3.706;2023-02-04T14:55:25;1.63;;;1.35;;
56045;SDS011;41913;51.030;3.706;2023-02-04T14:57:51;2.85;;;1.00;;
56045;SDS011;41913;51.030;3.706;2023-02-04T15:00:17;0.77;;;0.60;;
56045;SDS011;41913;51.030;3.706;2023-02-04T15:02:44;1.00;;;1.00;;
56045;SDS011;41913;51.030;3.706;2023-02-04T15:05:11;0.80;;;0.80;;
56045;SDS011;41913;51.030;3.706;2023-02-04T15:07:37;0.75;;;0.75;;
56045;SDS011;41913;51.030;3.706;2023-02-04T15:10:04;0.93;;;0.73;;